createdAt,value
2022-12-25T00:00:29.574Z,100667.44
2022-12-25T00:02:57.256Z,100668.25
2022-12-25T00:05:31.329Z,100665.00
2022-12-25T00:08:04.703Z,100666.09
2022-12-25T00:10:45.218Z,100668.78
2022-12-25T00:13:15.413Z,100670.97
2022-12-25T00:15:51.461Z,100683.31
2022-12-25T00:18:25.594Z,100674.69
2022-12-25T00:21:06.531Z,100682.25
2022-12-25T00:23:35.993Z,100694.59
2022-12-25T00:26:11.903Z,100703.75
2022-12-25T00:28:40.455Z,100696.75
2022-12-25T00:31:29.353Z,100695.16
2022-12-25T00:33:57.297Z,100692.47
2022-12-25T00:36:28.339Z,100690.87
2022-12-25T00:38:55.898Z,100686.56
2022-12-25T00:41:29.699Z,100686.56
2022-12-25T00:44:00.298Z,100693.00
2022-12-25T00:46:27.761Z,100700.56
2022-12-25T00:49:04.157Z,100697.87
2022-12-25T00:51:32.191Z,100701.63
2022-12-25T00:54:06.483Z,100700.84
2022-12-25T00:56:34.177Z,100709.16
2022-12-25T00:59:01.991Z,100707.56
2022-12-25T01:01:32.890Z,100702.97
2022-12-25T01:04:03.829Z,100711.34
2022-12-25T01:06:38.515Z,100714.28
2022-12-25T01:09:08.636Z,100704.31
2022-12-25T01:11:39.467Z,100716.97
2022-12-25T01:14:10.719Z,100717.25
2022-12-25T01:16:42.019Z,100721.53
2022-12-25T01:19:09.935Z,100721.03
2022-12-25T01:21:40.208Z,100712.97
2022-12-25T01:24:11.091Z,100719.38
2022-12-25T01:26:44.008Z,100719.38
2022-12-25T01:29:14.624Z,100720.75
2022-12-25T01:31:45.417Z,100721.56
2022-12-25T01:34:16.472Z,100720.75
2022-12-25T01:36:46.442Z,100723.69
2022-12-25T01:39:23.204Z,100722.09
2022-12-25T01:41:51.062Z,100733.66
2022-12-25T01:44:39.892Z,100731.25
2022-12-25T01:47:07.934Z,100724.78
2022-12-25T01:49:42.154Z,100717.25
2022-12-25T01:52:25.186Z,100721.84
2022-12-25T01:55:05.275Z,100715.91
2022-12-25T01:57:38.256Z,100720.47
2022-12-25T02:00:11.429Z,100732.59
2022-12-25T02:02:48.697Z,100725.59
2022-12-25T02:05:23.116Z,100723.16
2022-12-25T02:07:58.848Z,100733.91
2022-12-25T02:10:29.396Z,100733.38
2022-12-25T02:13:03.564Z,100730.69
2022-12-25T02:15:41.236Z,100722.91
2022-12-25T02:18:16.112Z,100729.09
2022-12-25T02:21:01.824Z,100732.81
2022-12-25T02:23:56.900Z,100725.84
2022-12-25T02:26:42.873Z,100733.41
2022-12-25T02:29:45.500Z,100732.59
2022-12-25T02:32:19.549Z,100740.91
2022-12-25T02:35:03.399Z,100746.28
2022-12-25T02:37:49.479Z,100739.31
2022-12-25T02:40:36.978Z,100748.44
2022-12-25T02:43:09.620Z,100743.06
2022-12-25T02:46:00.473Z,100743.31
2022-12-25T02:48:34.536Z,100746.81
2022-12-25T02:51:09.996Z,100744.41
2022-12-25T02:53:45.829Z,100750.59
2022-12-25T02:56:19.832Z,100747.38
2022-12-25T02:58:51.534Z,100750.06
2022-12-25T03:01:25.783Z,100751.91
2022-12-25T03:03:57.778Z,100749.50
2022-12-25T03:06:33.472Z,100754.88
2022-12-25T03:09:12.645Z,100747.91
2022-12-25T03:11:50.744Z,100742.53
2022-12-25T03:14:24.015Z,100743.62
2022-12-25T03:16:55.439Z,100744.69
2022-12-25T03:19:35.981Z,100745.75
2022-12-25T03:22:10.776Z,100744.69
2022-12-25T03:24:41.881Z,100739.59
2022-12-25T03:27:12.137Z,100738.78
2022-12-25T03:29:42.217Z,100734.47
2022-12-25T03:32:39.062Z,100732.88
2022-12-25T03:35:21.016Z,100736.34
2022-12-25T03:38:23.475Z,100734.47
2022-12-25T03:41:01.656Z,100732.88
2022-12-25T03:44:18.287Z,100740.94
2022-12-25T03:47:03.693Z,100732.06
2022-12-25T03:49:42.136Z,100726.69
2022-12-25T03:52:15.264Z,100737.44
2022-12-25T03:54:48.071Z,100735.03
2022-12-25T03:57:15.868Z,100728.56
2022-12-25T03:59:47.122Z,100731.25
2022-12-25T04:02:15.165Z,100730.47
2022-12-25T04:04:50.770Z,100730.47
2022-12-25T04:07:18.609Z,100737.16
2022-12-25T04:09:51.253Z,100737.16
2022-12-25T04:12:21.647Z,100742.53
2022-12-25T04:14:52.508Z,100749.00
2022-12-25T04:17:25.693Z,100751.69
2022-12-25T04:19:58.930Z,100764.56
2022-12-25T04:22:29.388Z,100753.81
2022-12-25T04:24:59.210Z,100745.25
2022-12-25T04:27:33.033Z,100736.38
2022-12-25T04:30:06.658Z,100747.38
2022-12-25T04:32:40.438Z,100745.78
2022-12-25T04:35:11.679Z,100744.97
2022-12-25T04:37:41.929Z,100748.47
2022-12-25T04:40:16.373Z,100746.84
2022-12-25T04:42:46.618Z,100746.31
2022-12-25T04:45:21.551Z,100753.31
2022-12-25T04:47:49.323Z,100739.31
2022-12-25T04:50:22.851Z,100739.31
2022-12-25T04:52:50.260Z,100742.28
2022-12-25T04:55:23.736Z,100748.47
2022-12-25T04:57:51.067Z,100748.72
2022-12-25T05:00:19.068Z,100745.22
2022-12-25T05:02:46.932Z,100750.59
2022-12-25T05:05:14.795Z,100753.56
2022-12-25T05:07:45.135Z,100743.91
2022-12-25T05:10:15.970Z,100751.16
2022-12-25T05:12:46.982Z,100747.62
2022-12-25T05:15:15.037Z,100755.44
2022-12-25T05:17:46.455Z,100744.16
2022-12-25T05:20:18.247Z,100753.28
2022-12-25T05:22:49.207Z,100761.34
2022-12-25T05:25:19.867Z,100765.13
2022-12-25T05:27:53.850Z,100762.44
2022-12-25T05:30:24.922Z,100765.91
2022-12-25T05:32:57.768Z,100763.22
2022-12-25T05:35:28.183Z,100763.22
2022-12-25T05:37:55.659Z,100763.47
2022-12-25T05:40:22.580Z,100762.44
2022-12-25T05:42:49.737Z,100757.06
2022-12-25T05:45:25.296Z,100758.66
2022-12-25T05:48:00.114Z,100748.72
2022-12-25T05:50:30.229Z,100744.16
2022-12-25T05:53:07.728Z,100747.38
2022-12-25T05:55:40.190Z,100755.16
2022-12-25T05:58:12.147Z,100755.97
2022-12-25T06:00:43.850Z,100757.59
2022-12-25T06:03:13.744Z,100768.34
2022-12-25T06:05:46.609Z,100767.50
2022-12-25T06:08:16.496Z,100761.09
2022-12-25T06:10:43.465Z,100752.22
2022-12-25T06:13:16.714Z,100755.44
2022-12-25T06:15:43.599Z,100752.22
2022-12-25T06:18:13.679Z,100746.56
2022-12-25T06:20:44.328Z,100753.28
2022-12-25T06:23:11.285Z,100757.59
2022-12-25T06:25:47.899Z,100768.06
2022-12-25T06:28:20.263Z,100766.19
2022-12-25T06:30:50.758Z,100762.44
2022-12-25T06:33:20.560Z,100768.59
2022-12-25T06:35:47.906Z,100764.03
2022-12-25T06:38:14.889Z,100765.09
2022-12-25T06:40:41.720Z,100770.47
2022-12-25T06:43:14.228Z,100773.16
2022-12-25T06:45:44.211Z,100773.16
2022-12-25T06:48:11.052Z,100774.25
2022-12-25T06:50:44.804Z,100778.53
2022-12-25T06:53:17.833Z,100783.91
2022-12-25T06:55:49.838Z,100774.78
2022-12-25T06:58:20.140Z,100788.22
2022-12-25T07:00:50.612Z,100793.56
2022-12-25T07:03:30.257Z,100797.62
2022-12-25T07:06:06.321Z,100805.41
2022-12-25T07:08:36.280Z,100797.84
2022-12-25T07:11:06.413Z,100801.09
2022-12-25T07:13:41.662Z,100802.69
2022-12-25T07:16:14.937Z,100802.16
2022-12-25T07:18:51.829Z,100802.97
2022-12-25T07:21:20.874Z,100800.84
2022-12-25T07:23:54.152Z,100809.41
2022-12-25T07:26:21.073Z,100813.47
2022-12-25T07:28:55.700Z,100815.06
2022-12-25T07:31:25.173Z,100815.34
2022-12-25T07:33:55.246Z,100815.88
2022-12-25T07:36:26.218Z,100826.34
2022-12-25T07:38:56.508Z,100834.94
2022-12-25T07:41:30.434Z,100849.44
2022-12-25T07:44:03.531Z,100841.38
2022-12-25T07:46:35.157Z,100844.91
2022-12-25T07:49:07.753Z,100852.69
2022-12-25T07:51:37.481Z,100862.91
2022-12-25T07:54:04.683Z,100863.97
2022-12-25T07:56:35.018Z,100865.59
2022-12-25T07:59:08.758Z,100860.22
2022-12-25T08:01:36.592Z,100870.97
2022-12-25T08:04:07.299Z,100865.59
2022-12-25T08:06:35.755Z,100861.28
2022-12-25T08:09:12.203Z,100856.47
2022-12-25T08:11:40.845Z,100851.09
2022-12-25T08:14:09.656Z,100860.22
2022-12-25T08:16:44.687Z,100868.28
2022-12-25T08:19:15.055Z,100874.72
2022-12-25T08:21:42.485Z,100875.28
2022-12-25T08:24:14.859Z,100881.72
2022-12-25T08:26:46.943Z,100881.72
2022-12-25T08:29:20.442Z,100877.41
2022-12-25T08:31:50.949Z,100870.16
2022-12-25T08:34:25.288Z,100867.47
2022-12-25T08:36:58.973Z,100875.28
2022-12-25T08:39:27.054Z,100872.59
2022-12-25T08:42:00.716Z,100879.56
2022-12-25T08:44:30.491Z,100883.06
2022-12-25T08:47:04.149Z,100881.19
2022-12-25T08:49:36.801Z,100889.25
2022-12-25T08:52:09.198Z,100880.09
2022-12-25T08:54:41.301Z,100884.41
2022-12-25T08:57:14.697Z,100884.41
2022-12-25T08:59:50.659Z,100889.78
2022-12-25T09:02:24.194Z,100886.03
2022-12-25T09:04:59.912Z,100886.03
2022-12-25T09:07:29.463Z,100882.53
2022-12-25T09:10:02.282Z,100887.63
2022-12-25T09:12:29.184Z,100881.44
2022-12-25T09:14:56.174Z,100877.69
2022-12-25T09:17:26.664Z,100876.88
2022-12-25T09:20:00.184Z,100882.25
2022-12-25T09:22:34.271Z,100886.53
2022-12-25T09:25:07.397Z,100886.53
2022-12-25T09:27:37.075Z,100880.13
2022-12-25T09:30:12.962Z,100873.09
2022-12-25T09:32:40.057Z,100883.06
2022-12-25T09:35:13.946Z,100888.19
2022-12-25T09:37:47.304Z,100888.19
2022-12-25T09:40:19.043Z,100887.09
2022-12-25T09:42:49.691Z,100876.34
2022-12-25T09:45:39.035Z,100874.75
2022-12-25T09:48:06.420Z,100879.03
2022-12-25T09:50:50.530Z,100873.38
2022-12-25T09:53:26.291Z,100863.41
2022-12-25T09:56:05.214Z,100866.66
2022-12-25T09:58:34.856Z,100864.53
2022-12-25T10:01:33.180Z,100866.12
2022-12-25T10:04:31.918Z,100865.03
2022-12-25T10:07:46.228Z,100867.72
2022-12-25T10:10:43.594Z,100863.94
2022-12-25T10:13:37.862Z,100854.28
2022-12-25T10:16:31.870Z,100851.59
2022-12-25T10:19:16.911Z,100850.78
2022-12-25T10:21:49.489Z,100847.81
2022-12-25T10:24:26.894Z,100845.12
2022-12-25T10:26:59.673Z,100840.84
2022-12-25T10:29:35.217Z,100836.28
2022-12-25T10:32:11.168Z,100843.25
2022-12-25T10:34:41.344Z,100841.91
2022-12-25T10:37:12.432Z,100835.44
2022-12-25T10:39:46.000Z,100836.00
2022-12-25T10:42:34.137Z,100833.81
2022-12-25T10:45:04.707Z,100824.97
2022-12-25T10:47:39.012Z,100825.75
2022-12-25T10:50:26.487Z,100824.69
2022-12-25T10:53:17.892Z,100822.00
2022-12-25T10:55:57.638Z,100830.88
2022-12-25T10:58:30.887Z,100827.09
2022-12-25T11:01:05.579Z,100822.53
2022-12-25T11:03:41.686Z,100819.84
2022-12-25T11:06:26.603Z,100826.81
2022-12-25T11:09:01.081Z,100827.91
2022-12-25T11:11:35.157Z,100817.16
2022-12-25T11:14:16.252Z,100816.34
2022-12-25T11:16:49.944Z,100813.66
2022-12-25T11:19:35.450Z,100817.16
2022-12-25T11:22:20.313Z,100806.41
2022-12-25T11:24:53.114Z,100801.03
2022-12-25T11:27:28.771Z,100805.59
2022-12-25T11:30:04.380Z,100797.81
2022-12-25T11:32:36.446Z,100789.19
2022-12-25T11:35:15.331Z,100791.09
2022-12-25T11:37:47.801Z,100783.31
2022-12-25T11:40:40.941Z,100790.28
2022-12-25T11:43:19.640Z,100791.38
2022-12-25T11:45:56.550Z,100790.53
2022-12-25T11:48:23.467Z,100786.25
2022-12-25T11:50:55.524Z,100776.59
2022-12-25T11:53:36.997Z,100774.69
2022-12-25T11:56:15.031Z,100772.00
2022-12-25T11:59:01.871Z,100766.63
2022-12-25T12:01:53.047Z,100774.69
2022-12-25T12:04:43.886Z,100775.78
2022-12-25T12:07:25.802Z,100763.94
2022-12-25T12:10:05.109Z,100761.25
2022-12-25T12:12:49.142Z,100756.97
2022-12-25T12:15:35.780Z,100749.41
2022-12-25T12:18:31.353Z,100740.53
2022-12-25T12:21:10.801Z,100735.97
2022-12-25T12:24:03.737Z,100734.38
2022-12-25T12:26:39.011Z,100745.13
2022-12-25T12:29:27.318Z,100746.72
2022-12-25T12:32:19.844Z,100743.22
2022-12-25T12:34:48.780Z,100746.72
2022-12-25T12:37:36.260Z,100752.09
2022-12-25T12:40:08.994Z,100742.72
2022-12-25T12:42:46.060Z,100750.78
2022-12-25T12:45:32.707Z,100743.78
2022-12-25T12:48:14.210Z,100756.41
2022-12-25T12:50:45.369Z,100757.22
2022-12-25T12:53:26.716Z,100761.25
2022-12-25T12:55:57.353Z,100763.41
2022-12-25T12:58:36.405Z,100749.41
2022-12-25T13:01:28.338Z,100749.66
2022-12-25T13:04:30.445Z,100747.75
2022-12-25T13:07:25.409Z,100746.66
2022-12-25T13:10:05.386Z,100743.94
2022-12-25T13:12:39.080Z,100745.78
2022-12-25T13:15:26.636Z,100749.25
2022-12-25T13:18:02.438Z,100744.94
2022-12-25T13:20:57.629Z,100736.59
2022-12-25T13:23:36.533Z,100744.63
2022-12-25T13:26:17.676Z,100743.81
2022-12-25T13:28:48.227Z,100731.94
2022-12-25T13:31:31.617Z,100734.06
2022-12-25T13:34:09.084Z,100733.22
2022-12-25T13:36:40.416Z,100732.37
2022-12-25T13:39:11.822Z,100734.53
2022-12-25T13:41:50.919Z,100737.75
2022-12-25T13:44:27.485Z,100730.72
2022-12-25T13:47:28.903Z,100729.06
2022-12-25T13:50:02.544Z,100731.19
2022-12-25T13:52:40.233Z,100729.56
2022-12-25T13:55:29.124Z,100727.41
2022-12-25T14:00:49.631Z,100721.19
2022-12-25T14:03:29.069Z,100725.22
2022-12-25T14:06:16.682Z,100732.19
2022-12-25T14:08:45.575Z,100723.03
2022-12-25T14:11:16.621Z,100719.50
2022-12-25T14:13:47.742Z,100725.69
2022-12-25T14:16:21.567Z,100724.87
2022-12-25T14:19:00.875Z,100719.25
2022-12-25T14:21:36.698Z,100712.78
2022-12-25T14:24:05.391Z,100713.00
2022-12-25T14:26:34.567Z,100718.69
2022-12-25T14:29:15.772Z,100702.53
2022-12-25T14:31:49.882Z,100699.84
2022-12-25T14:34:26.426Z,100698.47
2022-12-25T14:36:54.497Z,100693.59
2022-12-25T14:39:31.862Z,100697.38
2022-12-25T14:42:21.766Z,100705.75
2022-12-25T14:45:26.686Z,100711.16
2022-12-25T14:47:59.073Z,100713.31
2022-12-25T14:50:39.543Z,100713.84
2022-12-25T14:53:18.532Z,100713.62
2022-12-25T14:55:57.535Z,100718.75
2022-12-25T14:58:28.549Z,100716.06
2022-12-25T15:00:58.694Z,100714.53
2022-12-25T15:03:37.957Z,100721.00
2022-12-25T15:06:28.543Z,100721.59
2022-12-25T15:09:16.509Z,100722.69
2022-12-25T15:11:56.562Z,100718.97
2022-12-25T15:14:27.764Z,100713.09
2022-12-25T15:17:01.263Z,100709.34
2022-12-25T15:19:38.417Z,100707.50
2022-12-25T15:22:14.270Z,100708.03
2022-12-25T15:24:47.775Z,100711.28
2022-12-25T15:27:19.973Z,100712.09
2022-12-25T15:32:35.290Z,100710.53
2022-12-25T15:35:08.561Z,100706.78
2022-12-25T15:37:35.582Z,100716.22
2022-12-25T15:40:06.721Z,100703.56
2022-12-25T15:42:39.529Z,100703.84
2022-12-25T15:45:15.486Z,100697.94
2022-12-25T15:47:42.421Z,100706.28
2022-12-25T15:50:15.945Z,100703.06
2022-12-25T15:52:43.552Z,100706.03
2022-12-25T15:55:10.684Z,100714.38
2022-12-25T15:57:45.389Z,100718.13
2022-12-25T16:00:18.863Z,100708.75
2022-12-25T16:02:49.820Z,100713.31
2022-12-25T16:05:19.876Z,100713.88
2022-12-25T16:07:46.931Z,100714.13
2022-12-25T16:10:17.752Z,100709.03
2022-12-25T16:12:45.763Z,100700.44
2022-12-25T16:15:14.809Z,100704.22
2022-12-25T16:17:45.073Z,100698.31
2022-12-25T16:20:18.153Z,100687.03
2022-12-25T16:22:46.347Z,100687.31
2022-12-25T16:25:19.373Z,100685.44
2022-12-25T16:27:46.386Z,100687.56
2022-12-25T16:30:18.698Z,100683.28
2022-12-25T16:32:51.880Z,100690.84
2022-12-25T16:35:21.968Z,100704.28
2022-12-25T16:37:49.036Z,100688.69
2022-12-25T16:40:16.088Z,100680.63
2022-12-25T16:42:46.103Z,100680.09
2022-12-25T16:45:13.290Z,100683.06
2022-12-25T16:47:40.193Z,100686.00
2022-12-25T16:50:10.407Z,100693.25
2022-12-25T16:52:37.316Z,100696.25
2022-12-25T16:55:04.970Z,100700.81
2022-12-25T16:57:34.890Z,100698.37
2022-12-25T17:00:04.546Z,100698.94
2022-12-25T17:02:31.481Z,100704.31
2022-12-25T17:05:01.192Z,100697.84
2022-12-25T17:07:27.960Z,100690.31
2022-12-25T17:09:54.905Z,100683.84
2022-12-25T17:12:24.567Z,100676.34
2022-12-25T17:14:54.916Z,100667.69
2022-12-25T17:17:24.609Z,100657.47
2022-12-25T17:19:51.528Z,100645.62
2022-12-25T17:22:18.468Z,100637.03
2022-12-25T17:24:45.741Z,100636.47
2022-12-25T17:27:12.703Z,100630.81
2022-12-25T17:29:42.671Z,100621.41
2022-12-25T17:32:13.569Z,100629.19
2022-12-25T17:34:40.452Z,100631.56
2022-12-25T17:37:10.821Z,100617.88
2022-12-25T17:39:37.573Z,100612.19
2022-12-25T17:42:07.716Z,100606.81
2022-12-25T17:44:34.688Z,100601.97
2022-12-25T17:47:04.140Z,100612.19
2022-12-25T17:49:31.007Z,100609.22
2022-12-25T17:52:01.206Z,100611.59
2022-12-25T17:54:34.273Z,100620.22
2022-12-25T17:57:02.986Z,100626.91
2022-12-25T17:59:29.759Z,100633.91
2022-12-25T18:01:59.272Z,100633.63
2022-12-25T18:04:28.682Z,100631.47
2022-12-25T18:06:55.496Z,100634.16
2022-12-25T18:09:28.975Z,100631.97
2022-12-25T18:11:59.441Z,100645.44
2022-12-25T18:14:28.054Z,100647.56
2022-12-25T18:16:54.915Z,100637.91
2022-12-25T18:19:21.694Z,100634.91
2022-12-25T18:21:54.694Z,100631.94
2022-12-25T18:24:21.333Z,100631.94
2022-12-25T18:26:48.143Z,100628.97
2022-12-25T18:29:15.011Z,100628.19
2022-12-25T18:31:44.525Z,100635.16
2022-12-25T18:34:11.571Z,100634.06
2022-12-25T18:36:44.254Z,100642.16
2022-12-25T18:39:15.518Z,100636.75
2022-12-25T18:41:42.327Z,100628.44
2022-12-25T18:44:09.468Z,100631.91
2022-12-25T18:46:36.334Z,100640.78
2022-12-25T18:49:03.141Z,100626.53
2022-12-25T18:51:36.857Z,100619.28
2022-12-25T18:54:07.177Z,100611.50
2022-12-25T18:56:38.020Z,100611.19
2022-12-25T18:59:04.811Z,100612.00
2022-12-25T19:01:34.928Z,100609.31
2022-12-25T19:04:05.710Z,100610.41
2022-12-25T19:06:32.985Z,100609.31
2022-12-25T19:08:59.832Z,100609.31
2022-12-25T19:11:26.900Z,100602.31
2022-12-25T19:13:53.653Z,100595.06
2022-12-25T19:16:23.281Z,100591.56
2022-12-25T19:18:53.067Z,100584.28
2022-12-25T19:21:23.234Z,100582.41
2022-12-25T19:23:53.342Z,100581.34
2022-12-25T19:26:23.535Z,100579.44
2022-12-25T19:28:56.297Z,100573.28
2022-12-25T19:31:26.064Z,100565.47
2022-12-25T19:33:56.148Z,100563.31
2022-12-25T19:36:25.952Z,100554.97
2022-12-25T19:38:58.432Z,100551.97
2022-12-25T19:41:25.489Z,100547.94
2022-12-25T19:43:52.719Z,100550.88
2022-12-25T19:46:27.502Z,100547.88
2022-12-25T19:48:58.458Z,100554.31
2022-12-25T19:51:28.921Z,100548.34
2022-12-25T19:53:59.400Z,100553.19
2022-12-25T19:56:30.210Z,100553.41
2022-12-25T19:59:06.503Z,100552.03
2022-12-25T20:01:36.461Z,100557.66
2022-12-25T20:04:03.714Z,100551.69
2022-12-25T20:06:35.379Z,100548.72
2022-12-25T20:09:05.306Z,100548.16
2022-12-25T20:11:33.747Z,100551.38
2022-12-25T20:14:01.663Z,100549.19
2022-12-25T20:16:28.560Z,100542.72
2022-12-25T20:18:58.893Z,100537.56
2022-12-25T20:21:26.375Z,100549.66
2022-12-25T20:23:54.289Z,100545.87
2022-12-25T20:26:24.515Z,100541.00
2022-12-25T20:28:51.667Z,100537.22
2022-12-25T20:31:25.937Z,100542.31
2022-12-25T20:33:53.463Z,100539.34
2022-12-25T20:36:20.377Z,100543.88
2022-12-25T20:38:50.373Z,100541.19
2022-12-25T20:41:28.735Z,100550.59
2022-12-25T20:43:56.932Z,100547.59
2022-12-25T20:46:24.632Z,100557.56
2022-12-25T20:48:51.966Z,100545.19
2022-12-25T20:51:25.215Z,100546.28
2022-12-25T20:53:55.737Z,100539.59
2022-12-25T20:56:27.241Z,100547.94
2022-12-25T20:59:00.925Z,100544.75
2022-12-25T21:01:30.235Z,100537.75
2022-12-25T21:04:01.171Z,100539.34
2022-12-25T21:06:28.371Z,100523.25
2022-12-25T21:08:55.891Z,100513.56
2022-12-25T21:11:23.427Z,100506.56
2022-12-25T21:13:50.526Z,100507.13
2022-12-25T21:16:21.605Z,100514.72
2022-12-25T21:18:53.748Z,100511.50
2022-12-25T21:21:22.166Z,100509.91
2022-12-25T21:23:55.282Z,100517.44
2022-12-25T21:26:24.214Z,100521.22
2022-12-25T21:28:57.387Z,100518.03
2022-12-25T21:31:25.223Z,100521.78
2022-12-25T21:33:53.201Z,100517.81
2022-12-25T21:36:23.498Z,100520.75
2022-12-25T21:39:02.573Z,100513.78
2022-12-25T21:41:37.267Z,100513.28
2022-12-25T21:44:08.187Z,100501.69
2022-12-25T21:46:38.761Z,100508.47
2022-12-25T21:49:06.828Z,100514.94
2022-12-25T21:51:36.736Z,100521.13
2022-12-25T21:54:08.827Z,100517.91
2022-12-25T21:56:43.481Z,100511.72
2022-12-25T21:59:13.832Z,100510.12
2022-12-25T22:01:41.370Z,100512.28
2022-12-25T22:04:14.238Z,100510.69
2022-12-25T22:06:44.789Z,100502.91
2022-12-25T22:09:14.995Z,100507.47
2022-12-25T22:11:44.896Z,100505.88
2022-12-25T22:14:50.474Z,100507.25
2022-12-25T22:17:09.358Z,100496.50
2022-12-25T22:19:36.194Z,100494.06
2022-12-25T22:22:03.147Z,100498.66
2022-12-25T22:24:30.342Z,100500.53
2022-12-25T22:26:57.524Z,100494.63
2022-12-25T22:29:31.271Z,100487.66
2022-12-25T22:31:58.807Z,100486.06
2022-12-25T22:34:29.013Z,100484.44
2022-12-25T22:36:57.317Z,100489.84
2022-12-25T22:39:25.153Z,100486.59
2022-12-25T22:41:58.032Z,100485.00
2022-12-25T22:44:27.072Z,100492.28
2022-12-25T22:46:57.613Z,100483.41
2022-12-25T22:49:25.276Z,100482.84
2022-12-25T22:51:53.455Z,100474.78
2022-12-25T22:54:22.079Z,100482.84
2022-12-25T22:56:53.521Z,100486.62
2022-12-25T22:59:23.140Z,100486.09
2022-12-25T23:01:50.976Z,100480.72
2022-12-25T23:04:18.129Z,100475.34
2022-12-25T23:06:45.379Z,100486.09
2022-12-25T23:09:19.004Z,100495.28
2022-12-25T23:11:50.952Z,100485.59
2022-12-25T23:14:17.764Z,100480.22
2022-12-25T23:16:44.637Z,100488.56
2022-12-25T23:19:13.326Z,100502.31
2022-12-25T23:21:40.857Z,100498.81
2022-12-25T23:24:10.045Z,100494.53
2022-12-25T23:26:37.328Z,100497.22
2022-12-25T23:29:06.659Z,100497.47
2022-12-25T23:31:38.051Z,100493.19
2022-12-25T23:34:05.916Z,100487.81
2022-12-25T23:36:39.301Z,100495.34
2022-12-25T23:39:10.626Z,100495.34
2022-12-25T23:41:45.319Z,100496.44
2022-12-25T23:44:15.383Z,100492.16
2022-12-25T23:46:52.646Z,100493.25
2022-12-25T23:49:21.074Z,100498.09
2022-12-25T23:51:47.839Z,100499.97
2022-12-25T23:54:22.042Z,100504.56
2022-12-25T23:56:49.780Z,100493.28
2022-12-25T23:59:17.263Z,100495.97
